createdAt,value
2024-04-24T00:00:30.297Z,4.38
2024-04-24T00:05:24.034Z,3.85
2024-04-24T00:07:50.931Z,3.35
2024-04-24T00:10:17.553Z,3.97
2024-04-24T00:12:44.190Z,3.55
2024-04-24T00:17:37.516Z,3.92
2024-04-24T00:20:04.491Z,3.90
2024-04-24T00:22:33.936Z,4.15
2024-04-24T00:25:00.739Z,4.30
2024-04-24T00:27:28.188Z,3.97
2024-04-24T00:29:54.785Z,3.70
2024-04-24T00:32:21.507Z,3.58
2024-04-24T00:37:14.674Z,3.67
2024-04-24T00:39:41.311Z,3.75
2024-04-24T00:44:44.108Z,3.85
2024-04-24T00:47:10.887Z,4.28
2024-04-24T00:49:37.686Z,3.40
2024-04-24T00:52:04.410Z,3.63
2024-04-24T00:56:58.243Z,3.60
2024-04-24T00:59:24.996Z,3.65
2024-04-24T01:04:18.438Z,3.50
2024-04-24T01:06:47.654Z,3.97
2024-04-24T01:09:15.963Z,3.55
2024-04-24T01:14:09.682Z,3.60
2024-04-24T01:16:42.068Z,3.50
2024-04-24T01:19:40.341Z,3.70
2024-04-24T01:22:23.938Z,3.63
2024-04-24T01:25:03.968Z,3.58
2024-04-24T01:27:30.751Z,2.90
2024-04-24T01:29:57.477Z,3.15
2024-04-24T01:34:50.883Z,2.88
2024-04-24T01:37:17.605Z,3.75
2024-04-24T01:42:10.734Z,3.47
2024-04-24T01:44:37.398Z,3.35
2024-04-24T01:49:30.657Z,4.05
2024-04-24T01:51:57.276Z,3.60
2024-04-24T01:56:50.439Z,4.68
2024-04-24T01:59:17.108Z,3.63
2024-04-24T02:01:43.906Z,3.63
2024-04-24T02:06:37.310Z,3.30
2024-04-24T02:11:32.876Z,3.67
2024-04-24T02:14:01.199Z,4.28
2024-04-24T02:16:28.247Z,3.95
2024-04-24T02:18:54.912Z,4.75
2024-04-24T02:23:48.270Z,4.22
2024-04-24T02:28:41.534Z,4.60
2024-04-24T02:46:49.038Z,5.38
2024-04-24T02:51:42.259Z,5.13
2024-04-24T02:54:08.868Z,5.22
2024-04-24T02:59:04.907Z,4.30
2024-04-24T03:01:31.475Z,6.68
2024-04-24T03:03:58.202Z,4.68
2024-04-24T03:06:24.823Z,5.22
2024-04-24T03:08:51.446Z,4.18
2024-04-24T03:11:18.300Z,4.63
2024-04-24T03:13:44.948Z,4.25
2024-04-24T03:16:11.570Z,3.72
2024-04-24T03:21:05.345Z,4.18
2024-04-24T03:23:31.937Z,4.05
2024-04-24T03:25:58.620Z,3.65
2024-04-24T03:30:51.788Z,3.35
2024-04-24T03:33:18.525Z,4.10
2024-04-24T03:35:45.187Z,3.13
2024-04-24T03:38:11.774Z,3.53
2024-04-24T03:43:05.323Z,3.45
2024-04-24T03:45:31.939Z,3.40
2024-04-24T03:47:58.593Z,3.83
2024-04-24T03:52:51.892Z,3.67
2024-04-24T03:57:45.039Z,3.92
2024-04-24T04:00:12.238Z,3.42
2024-04-24T04:02:39.025Z,3.13
2024-04-24T04:05:05.805Z,3.90
2024-04-24T04:09:59.028Z,4.20
2024-04-24T04:12:25.678Z,3.65
2024-04-24T04:17:18.922Z,3.72
2024-04-24T04:22:24.194Z,3.63
2024-04-24T04:24:50.793Z,4.43
2024-04-24T04:27:18.307Z,3.92
2024-04-24T04:29:44.881Z,3.95
2024-04-24T04:32:11.561Z,3.72
2024-04-24T04:37:04.707Z,3.95
2024-04-24T04:39:31.313Z,4.47
2024-04-24T04:42:01.332Z,3.60
2024-04-24T04:44:28.334Z,4.50
2024-04-24T04:46:55.149Z,5.43
2024-04-24T04:49:21.885Z,5.63
2024-04-24T04:54:15.149Z,4.47
2024-04-24T04:56:41.750Z,5.43
2024-04-24T05:01:35.840Z,5.35
2024-04-24T05:06:29.186Z,5.22
2024-04-24T05:11:22.449Z,5.00
2024-04-24T05:16:24.928Z,4.70
2024-04-24T05:21:20.652Z,4.40
2024-04-24T05:23:47.726Z,4.50
2024-04-24T05:26:33.181Z,4.40
2024-04-24T05:29:05.994Z,4.47
2024-04-24T05:31:32.655Z,4.72
2024-04-24T05:36:32.007Z,3.90
2024-04-24T05:38:58.846Z,4.30
2024-04-24T05:41:25.654Z,4.18
2024-04-24T05:43:54.148Z,4.55
2024-04-24T05:46:20.906Z,4.35
2024-04-24T05:51:45.271Z,4.53
2024-04-24T05:56:38.795Z,7.20
2024-04-24T06:01:32.042Z,4.68
2024-04-24T06:03:59.051Z,4.63
2024-04-24T06:06:28.772Z,4.32
2024-04-24T06:08:55.428Z,4.78
2024-04-24T06:13:49.036Z,4.03
2024-04-24T06:16:18.072Z,4.10
2024-04-24T06:19:06.579Z,5.18
2024-04-24T06:21:33.615Z,4.88
2024-04-24T06:24:00.418Z,5.25
2024-04-24T06:26:27.196Z,6.53
2024-04-24T06:31:30.204Z,4.53
2024-04-24T06:33:56.861Z,4.53
2024-04-24T06:38:50.076Z,4.10
2024-04-24T06:41:17.111Z,4.88
2024-04-24T06:43:44.297Z,4.68
2024-04-24T06:46:11.080Z,4.22
2024-04-24T06:51:05.513Z,4.85
2024-04-24T06:53:32.317Z,4.68
2024-04-24T06:56:03.958Z,4.65
2024-04-24T06:58:33.163Z,4.35
2024-04-24T07:00:59.991Z,4.97
2024-04-24T07:03:27.922Z,5.07
2024-04-24T07:05:55.199Z,4.30
2024-04-24T07:08:22.012Z,4.47
2024-04-24T07:10:49.062Z,3.75
2024-04-24T07:13:15.756Z,4.82
2024-04-24T07:15:42.575Z,4.75
2024-04-24T07:18:09.324Z,4.60
2024-04-24T07:23:03.260Z,5.18
2024-04-24T07:25:29.952Z,5.13
2024-04-24T07:30:24.028Z,4.55
2024-04-24T07:32:50.824Z,4.70
2024-04-24T07:37:44.148Z,4.72
2024-04-24T07:42:38.250Z,4.85
2024-04-24T07:47:31.726Z,4.18
2024-04-24T07:49:58.573Z,3.60
2024-04-24T07:55:08.793Z,4.22
2024-04-24T07:57:35.593Z,4.05
2024-04-24T08:02:29.886Z,3.85
2024-04-24T08:04:56.857Z,3.47
2024-04-24T08:07:23.511Z,3.28
2024-04-24T08:09:50.303Z,4.65
2024-04-24T08:14:43.786Z,3.75
2024-04-24T08:17:10.409Z,5.18
2024-04-24T08:22:03.792Z,3.42
2024-04-24T08:24:30.446Z,3.72
2024-04-24T08:26:57.716Z,4.00
2024-04-24T08:29:25.347Z,3.55
2024-04-24T08:31:52.867Z,4.20
2024-04-24T08:34:19.777Z,4.00
2024-04-24T08:36:46.539Z,3.88
2024-04-24T08:41:45.760Z,3.78
2024-04-24T08:44:13.703Z,4.43
2024-04-24T08:46:41.088Z,4.40
2024-04-24T08:49:07.988Z,4.38
2024-04-24T08:51:37.975Z,4.43
2024-04-24T08:54:06.172Z,4.20
2024-04-24T08:56:38.555Z,3.97
2024-04-24T08:59:12.223Z,3.90
2024-04-24T09:01:41.242Z,3.47
2024-04-24T09:04:09.409Z,3.78
2024-04-24T09:06:38.338Z,4.20
2024-04-24T09:09:06.033Z,5.68
2024-04-24T09:11:33.557Z,5.40
2024-04-24T09:14:00.552Z,4.85
2024-04-24T09:16:27.664Z,6.20
2024-04-24T09:19:05.503Z,4.63
2024-04-24T09:21:33.157Z,5.55
2024-04-24T09:24:00.400Z,4.30
2024-04-24T09:26:27.963Z,4.88
2024-04-24T09:28:55.235Z,5.90
2024-04-24T09:31:23.622Z,5.78
2024-04-24T09:33:51.320Z,5.32
2024-04-24T09:36:18.086Z,6.20
2024-04-24T09:38:46.370Z,6.22
2024-04-24T09:41:13.166Z,6.45
2024-04-24T09:46:06.543Z,7.05
2024-04-24T09:48:33.240Z,7.90
2024-04-24T09:53:26.966Z,7.75
2024-04-24T09:58:35.221Z,7.75
2024-04-24T10:01:08.257Z,10.10
2024-04-24T10:03:36.824Z,9.73
2024-04-24T10:06:06.558Z,9.25
2024-04-24T10:08:34.758Z,9.13
2024-04-24T10:11:08.927Z,8.68
2024-04-24T10:13:41.409Z,8.52
2024-04-24T10:16:08.643Z,8.55
2024-04-24T10:18:36.789Z,9.40
2024-04-24T10:21:10.416Z,9.02
2024-04-24T10:23:41.210Z,9.65
2024-04-24T10:26:09.887Z,9.43
2024-04-24T10:28:38.210Z,7.18
2024-04-24T10:31:04.892Z,7.53
2024-04-24T10:33:32.472Z,9.23
2024-04-24T10:36:01.273Z,9.82
2024-04-24T10:38:33.109Z,9.23
2024-04-24T10:41:00.017Z,9.75
2024-04-24T10:46:04.089Z,8.27
2024-04-24T10:49:00.127Z,9.27
2024-04-24T10:51:30.349Z,8.55
2024-04-24T10:53:59.877Z,8.73
2024-04-24T10:56:36.266Z,8.85
2024-04-24T10:59:06.592Z,7.88
2024-04-24T11:01:46.245Z,9.55
2024-04-24T11:04:17.922Z,9.13
2024-04-24T11:06:45.717Z,8.13
2024-04-24T11:09:12.530Z,8.73
2024-04-24T11:11:39.537Z,7.63
2024-04-24T11:14:41.423Z,7.15
2024-04-24T11:17:08.411Z,7.80
2024-04-24T11:19:35.158Z,8.23
2024-04-24T11:24:32.960Z,7.57
2024-04-24T11:27:00.618Z,6.35
2024-04-24T11:36:52.348Z,7.03
2024-04-24T11:41:51.573Z,6.88
2024-04-24T11:48:15.743Z,5.00
2024-04-24T11:50:42.613Z,5.07
2024-04-24T12:00:48.256Z,3.35
2024-04-24T12:06:16.964Z,5.28
2024-04-24T12:16:48.594Z,4.63
2024-04-24T12:22:56.727Z,4.57
2024-04-24T12:25:46.375Z,5.18
2024-04-24T12:28:15.641Z,5.32
2024-04-24T12:30:59.988Z,5.05
2024-04-24T12:33:27.309Z,5.53
2024-04-24T12:35:54.080Z,4.78
2024-04-24T12:41:05.224Z,3.50
2024-04-24T12:43:32.467Z,3.28
2024-04-24T12:45:59.374Z,3.78
2024-04-24T12:48:26.280Z,3.35
2024-04-24T12:55:21.466Z,3.55
2024-04-24T13:01:45.805Z,4.65
2024-04-24T13:14:38.403Z,3.67
2024-04-24T13:23:29.412Z,5.25
2024-04-24T13:26:36.685Z,5.10
2024-04-24T13:29:03.615Z,4.82
2024-04-24T13:31:50.213Z,5.25
2024-04-24T13:38:07.072Z,4.88
2024-04-24T13:43:29.657Z,5.63
2024-04-24T13:45:56.800Z,5.18
2024-04-24T13:48:23.674Z,5.32
2024-04-24T13:51:32.491Z,4.95
2024-04-24T13:57:42.882Z,6.28
2024-04-24T14:00:51.878Z,5.55
2024-04-24T14:09:35.079Z,5.88
2024-04-24T14:12:23.533Z,6.38
2024-04-24T14:19:06.431Z,6.90
2024-04-24T14:21:34.905Z,5.88
2024-04-24T14:24:02.281Z,6.45
2024-04-24T14:26:29.164Z,5.85
2024-04-24T14:28:59.865Z,6.25
2024-04-24T14:59:21.828Z,6.40
2024-04-24T15:04:55.643Z,5.72
2024-04-24T15:07:27.566Z,6.35
2024-04-24T15:10:07.722Z,6.80
2024-04-24T15:12:57.689Z,6.80
2024-04-24T15:15:28.125Z,6.47
2024-04-24T15:27:06.520Z,7.22
2024-04-24T15:30:12.043Z,6.78
2024-04-24T15:32:42.161Z,7.55
2024-04-24T15:35:16.245Z,7.45
2024-04-24T15:37:53.900Z,7.72
2024-04-24T15:40:30.068Z,7.25
2024-04-24T15:43:04.252Z,7.10
2024-04-24T15:48:24.318Z,7.55
2024-04-24T15:51:02.875Z,7.60
2024-04-24T15:53:52.877Z,7.85
2024-04-24T15:56:30.807Z,7.70
2024-04-24T16:01:50.508Z,7.72
2024-04-24T16:05:06.644Z,6.78
2024-04-24T16:07:33.618Z,6.88
2024-04-24T16:10:00.650Z,8.13
2024-04-24T16:12:36.415Z,6.32
2024-04-24T16:15:06.543Z,5.55
2024-04-24T16:17:34.565Z,6.05
2024-04-24T16:23:03.574Z,6.00
2024-04-24T16:25:51.452Z,5.60
2024-04-24T16:36:22.344Z,5.30
2024-04-24T16:39:35.312Z,5.90
2024-04-24T16:42:08.131Z,4.70
2024-04-24T16:45:23.696Z,4.75
2024-04-24T16:48:33.109Z,4.93
2024-04-24T16:51:10.880Z,5.55
2024-04-24T16:53:37.593Z,5.38
2024-04-24T16:59:09.899Z,6.20
2024-04-24T17:01:44.556Z,5.25
2024-04-24T17:04:56.493Z,5.05
2024-04-24T17:07:36.156Z,5.30
2024-04-24T17:14:44.342Z,5.35
2024-04-24T17:17:29.954Z,4.70
2024-04-24T17:19:56.743Z,4.55
2024-04-24T17:25:15.851Z,5.50
2024-04-24T17:27:45.120Z,4.32
2024-04-24T17:30:19.075Z,5.05
2024-04-24T17:32:49.221Z,4.30
2024-04-24T17:35:25.505Z,6.68
2024-04-24T17:37:52.231Z,4.78
2024-04-24T17:42:46.136Z,4.32
2024-04-24T17:45:13.100Z,5.35
2024-04-24T18:21:41.392Z,10.02
2024-04-24T18:24:37.270Z,9.27
2024-04-24T18:27:59.595Z,8.07
2024-04-24T18:34:29.793Z,8.20
2024-04-24T18:37:05.436Z,8.38
2024-04-24T18:42:50.679Z,8.57
2024-04-24T18:45:33.948Z,9.30
2024-04-24T18:48:00.871Z,8.55
2024-04-24T18:50:34.997Z,8.32
2024-04-24T18:53:04.625Z,7.68
2024-04-24T18:55:31.479Z,9.27
2024-04-24T18:57:58.217Z,10.15
2024-04-24T19:02:51.747Z,8.55
2024-04-24T19:05:20.690Z,8.63
2024-04-24T19:07:47.522Z,9.15
2024-04-24T19:12:42.287Z,9.45
2024-04-24T19:17:36.450Z,7.82
2024-04-24T19:20:03.468Z,9.60
2024-04-24T19:22:30.828Z,8.95
2024-04-24T19:24:57.512Z,9.50
2024-04-24T19:30:06.596Z,10.82
2024-04-24T19:33:10.886Z,11.23
2024-04-24T19:35:38.000Z,9.70
2024-04-24T19:38:07.739Z,9.43
2024-04-24T19:41:28.468Z,9.52
2024-04-24T19:44:08.436Z,9.65
2024-04-24T19:53:22.238Z,10.70
2024-04-24T19:55:52.470Z,11.20
2024-04-24T20:01:25.848Z,10.27
2024-04-24T20:04:20.957Z,12.05
2024-04-24T20:07:00.233Z,11.52
2024-04-24T20:09:27.051Z,11.57
2024-04-24T20:12:03.231Z,11.35
2024-04-24T20:14:29.981Z,11.43
2024-04-24T20:19:26.597Z,12.32
2024-04-24T20:21:53.978Z,11.43
2024-04-24T20:24:20.745Z,12.60
2024-04-24T20:29:21.658Z,11.00
2024-04-24T20:31:50.441Z,12.45
2024-04-24T20:34:17.811Z,13.25
2024-04-24T20:36:44.442Z,12.15
2024-04-24T20:39:11.122Z,11.95
2024-04-24T20:44:09.848Z,12.57
2024-04-24T20:46:50.341Z,13.38
2024-04-24T20:49:17.074Z,11.90
2024-04-24T20:56:49.617Z,11.70
2024-04-24T20:59:16.564Z,12.13
2024-04-24T21:01:46.016Z,11.77
2024-04-24T21:04:17.307Z,12.80
2024-04-24T21:06:44.032Z,12.13
2024-04-24T21:11:48.072Z,11.88
2024-04-24T21:14:18.118Z,13.10
2024-04-24T21:16:44.873Z,13.07
2024-04-24T21:21:49.015Z,12.13
2024-04-24T21:24:16.845Z,12.52
2024-04-24T21:26:51.811Z,12.68
2024-04-24T21:29:24.992Z,12.98
2024-04-24T21:31:52.442Z,13.00
2024-04-24T21:34:19.163Z,13.10
2024-04-24T21:39:13.755Z,12.02
2024-04-24T21:41:42.924Z,12.25
2024-04-24T21:44:09.641Z,12.43
2024-04-24T21:49:03.063Z,11.35
2024-04-24T21:53:58.084Z,12.30
2024-04-24T21:56:25.132Z,13.30
2024-04-24T22:01:23.080Z,12.63
2024-04-24T22:03:50.305Z,13.10
2024-04-24T22:06:20.479Z,13.00
2024-04-24T22:08:48.485Z,13.45
2024-04-24T22:11:15.571Z,14.98
2024-04-24T22:13:42.246Z,14.25
2024-04-24T22:16:09.087Z,14.55
2024-04-24T22:18:36.487Z,13.95
2024-04-24T22:21:03.360Z,13.43
2024-04-24T22:23:30.230Z,14.88
2024-04-24T22:25:56.929Z,13.85
2024-04-24T22:30:50.179Z,13.30
2024-04-24T22:33:17.053Z,14.43
2024-04-24T22:35:43.811Z,15.18
2024-04-24T22:40:39.775Z,15.07
2024-04-24T22:43:09.079Z,14.98
2024-04-24T22:45:35.774Z,15.32
2024-04-24T22:51:26.292Z,14.25
2024-04-24T22:53:52.919Z,15.90
2024-04-24T22:56:19.644Z,16.55
2024-04-24T22:58:47.923Z,16.45
2024-04-24T23:01:15.208Z,14.95
2024-04-24T23:03:41.901Z,15.65
2024-04-24T23:08:35.159Z,16.33
2024-04-24T23:11:01.959Z,16.05
2024-04-24T23:13:28.610Z,16.35
2024-04-24T23:15:55.216Z,16.85
2024-04-24T23:18:21.994Z,17.60
2024-04-24T23:20:48.709Z,17.58
2024-04-24T23:25:42.546Z,15.88
2024-04-24T23:28:09.228Z,16.52
2024-04-24T23:33:02.447Z,16.70
2024-04-24T23:35:29.179Z,16.80
2024-04-24T23:40:22.445Z,18.02
2024-04-24T23:42:49.133Z,18.50
2024-04-24T23:47:44.357Z,17.25
2024-04-24T23:50:11.099Z,19.00
2024-04-24T23:55:04.493Z,16.85
2024-04-24T23:57:31.115Z,18.50
2024-04-24T23:59:57.729Z,17.05
